sensor_id;sensor_type;location;lat;lon;timestamp;pressure;altitude;pressure_sealevel;temperature;humidity
42067;BME280;27734;47.028;28.820;2023-05-31T00:02:10;100419.06;;;15.67;53.42
42067;BME280;27734;47.028;28.820;2023-05-31T00:04:41;100411.95;;;15.62;53.12
42067;BME280;27734;47.028;28.820;2023-05-31T00:07:12;100418.95;;;15.59;53.35
42067;BME280;27734;47.028;28.820;2023-05-31T00:09:44;100414.50;;;15.56;52.86
42067;BME280;27734;47.028;28.820;2023-05-31T00:12:15;100421.54;;;15.54;53.58
42067;BME280;27734;47.028;28.820;2023-05-31T00:14:47;100414.44;;;15.52;53.36
42067;BME280;27734;47.028;28.820;2023-05-31T00:17:18;100425.91;;;15.51;53.63
42067;BME280;27734;47.028;28.820;2023-05-31T00:19:50;100421.47;;;15.50;53.42
42067;BME280;27734;47.028;28.820;2023-05-31T00:22:21;100432.91;;;15.49;52.97
42067;BME280;27734;47.028;28.820;2023-05-31T00:24:52;100439.94;;;15.46;53.58
42067;BME280;27734;47.028;28.820;2023-05-31T00:27:25;100440.77;;;15.44;53.70
42067;BME280;27734;47.028;28.820;2023-05-31T00:29:56;100433.66;;;15.38;54.09
42067;BME280;27734;47.028;28.820;2023-05-31T00:32:27;100432.72;;;15.36;54.07
42067;BME280;27734;47.028;28.820;2023-05-31T00:34:58;100435.34;;;15.35;54.04
42067;BME280;27734;47.028;28.820;2023-05-31T00:37:29;100437.96;;;15.33;53.47
42067;BME280;27734;47.028;28.820;2023-05-31T00:40:07;100437.02;;;15.28;54.19
42067;BME280;27734;47.028;28.820;2023-05-31T00:42:39;100438.70;;;15.23;54.06
42067;BME280;27734;47.028;28.820;2023-05-31T00:45:11;100438.66;;;15.20;54.12
42067;BME280;27734;47.028;28.820;2023-05-31T00:47:42;100441.25;;;15.17;55.16
42067;BME280;27734;47.028;28.820;2023-05-31T00:50:14;100453.56;;;15.15;55.35
42067;BME280;27734;47.028;28.820;2023-05-31T00:52:48;100453.52;;;15.12;54.51
42067;BME280;27734;47.028;28.820;2023-05-31T00:55:21;100446.38;;;15.07;54.57
42067;BME280;27734;47.028;28.820;2023-05-31T00:57:52;100464.86;;;15.06;55.35
42067;BME280;27734;47.028;28.820;2023-05-31T01:00:24;100459.55;;;15.04;55.65
42067;BME280;27734;47.028;28.820;2023-05-31T01:02:55;100455.06;;;15.00;55.03
42067;BME280;27734;47.028;28.820;2023-05-31T01:05:31;100450.61;;;14.96;55.33
42067;BME280;27734;47.028;28.820;2023-05-31T01:08:02;100455.87;;;14.95;55.27
42067;BME280;27734;47.028;28.820;2023-05-31T01:10:34;100455.84;;;14.93;55.64
42067;BME280;27734;47.028;28.820;2023-05-31T01:13:12;100460.19;;;14.91;55.86
42067;BME280;27734;47.028;28.820;2023-05-31T01:15:50;100453.97;;;14.87;56.21
42067;BME280;27734;47.028;28.820;2023-05-31T01:18:30;100468.00;;;14.85;56.93
42067;BME280;27734;47.028;28.820;2023-05-31T01:21:03;100467.05;;;14.80;56.78
42067;BME280;27734;47.028;28.820;2023-05-31T01:23:47;100466.05;;;14.73;57.04
42067;BME280;27734;47.028;28.820;2023-05-31T01:26:38;100462.45;;;14.68;56.72
42067;BME280;27734;47.028;28.820;2023-05-31T01:29:13;100470.34;;;14.66;57.69
42067;BME280;27734;47.028;28.820;2023-05-31T01:31:48;100468.55;;;14.65;57.49
42067;BME280;27734;47.028;28.820;2023-05-31T01:34:21;100468.52;;;14.64;56.78
42067;BME280;27734;47.028;28.820;2023-05-31T01:36:53;100468.40;;;14.59;57.67
42067;BME280;27734;47.028;28.820;2023-05-31T01:39:24;100467.46;;;14.55;58.02
42067;BME280;27734;47.028;28.820;2023-05-31T01:41:56;100475.38;;;14.55;57.47
42067;BME280;27734;47.028;28.820;2023-05-31T01:44:28;100469.12;;;14.52;58.22
42067;BME280;27734;47.028;28.820;2023-05-31T01:47:01;100467.34;;;14.49;57.50
42067;BME280;27734;47.028;28.820;2023-05-31T01:49:33;100464.67;;;14.48;57.38
42067;BME280;27734;47.028;28.820;2023-05-31T01:52:10;100462.03;;;14.48;57.60
42067;BME280;27734;47.028;28.820;2023-05-31T01:54:43;100470.86;;;14.50;57.63
42067;BME280;27734;47.028;28.820;2023-05-31T01:57:15;100466.46;;;14.50;57.07
42067;BME280;27734;47.028;28.820;2023-05-31T01:59:47;100470.02;;;14.51;57.18
42067;BME280;27734;47.028;28.820;2023-05-31T02:02:19;100468.22;;;14.50;56.76
42067;BME280;27734;47.028;28.820;2023-05-31T02:04:51;100461.16;;;14.49;57.77
42067;BME280;27734;47.028;28.820;2023-05-31T02:07:22;100469.95;;;14.48;57.69
42067;BME280;27734;47.028;28.820;2023-05-31T02:09:53;100469.02;;;14.46;57.81
42067;BME280;27734;47.028;28.820;2023-05-31T02:12:25;100470.74;;;14.44;57.89
42067;BME280;27734;47.028;28.820;2023-05-31T02:14:56;100478.63;;;14.42;57.12
42067;BME280;27734;47.028;28.820;2023-05-31T02:17:28;100462.73;;;14.39;57.69
42067;BME280;27734;47.028;28.820;2023-05-31T02:20:03;100472.38;;;14.37;58.11
42067;BME280;27734;47.028;28.820;2023-05-31T02:22:36;100466.16;;;14.35;57.96
42067;BME280;27734;47.028;28.820;2023-05-31T02:25:09;100471.47;;;14.36;58.06
42067;BME280;27734;47.028;28.820;2023-05-31T02:27:42;100471.44;;;14.35;58.72
42067;BME280;27734;47.028;28.820;2023-05-31T02:30:14;100474.08;;;14.35;57.83
42067;BME280;27734;47.028;28.820;2023-05-31T02:32:47;100474.96;;;14.34;58.60
42067;BME280;27734;47.028;28.820;2023-05-31T02:35:19;100478.45;;;14.33;58.80
42067;BME280;27734;47.028;28.820;2023-05-31T02:37:52;100476.66;;;14.32;58.17
42067;BME280;27734;47.028;28.820;2023-05-31T02:40:23;100478.48;;;14.34;58.31
42067;BME280;27734;47.028;28.820;2023-05-31T02:42:54;100480.24;;;14.34;58.88
42067;BME280;27734;47.028;28.820;2023-05-31T02:45:26;100488.16;;;14.34;58.73
42067;BME280;27734;47.028;28.820;2023-05-31T02:47:57;100489.01;;;14.33;58.24
42067;BME280;27734;47.028;28.820;2023-05-31T02:50:32;100488.98;;;14.31;58.57
42067;BME280;27734;47.028;28.820;2023-05-31T02:53:04;100496.05;;;14.32;58.31
42067;BME280;27734;47.028;28.820;2023-05-31T02:55:40;100491.61;;;14.31;59.42
42067;BME280;27734;47.028;28.820;2023-05-31T02:58:27;100494.22;;;14.30;58.93
42067;BME280;27734;47.028;28.820;2023-05-31T03:01:21;100501.27;;;14.29;58.94
42067;BME280;27734;47.028;28.820;2023-05-31T03:04:08;100502.17;;;14.31;59.53
42067;BME280;27734;47.028;28.820;2023-05-31T03:06:40;100498.72;;;14.34;59.73
42067;BME280;27734;47.028;28.820;2023-05-31T03:09:12;100505.78;;;14.36;59.41
42067;BME280;27734;47.028;28.820;2023-05-31T03:11:46;100497.96;;;14.41;59.08
42067;BME280;27734;47.028;28.820;2023-05-31T03:14:18;100513.86;;;14.44;59.50
42067;BME280;27734;47.028;28.820;2023-05-31T03:16:53;100511.22;;;14.44;59.96
42067;BME280;27734;47.028;28.820;2023-05-31T03:19:25;100507.83;;;14.50;59.93
42067;BME280;27734;47.028;28.820;2023-05-31T03:21:56;100513.20;;;14.54;59.81
42067;BME280;27734;47.028;28.820;2023-05-31T03:24:29;100511.47;;;14.56;59.49
42067;BME280;27734;47.028;28.820;2023-05-31T03:27:01;100513.26;;;14.58;59.99
42067;BME280;27734;47.028;28.820;2023-05-31T03:29:35;100519.45;;;14.60;59.98
42067;BME280;27734;47.028;28.820;2023-05-31T03:32:08;100519.58;;;14.64;59.91
42067;BME280;27734;47.028;28.820;2023-05-31T03:34:41;100520.58;;;14.69;59.40
42067;BME280;27734;47.028;28.820;2023-05-31T03:37:13;100520.66;;;14.76;59.33
42067;BME280;27734;47.028;28.820;2023-05-31T03:39:57;100525.21;;;14.83;59.78
42067;BME280;27734;47.028;28.820;2023-05-31T03:42:32;100529.64;;;14.84;59.96
42067;BME280;27734;47.028;28.820;2023-05-31T03:45:04;100524.36;;;14.84;59.37
42067;BME280;27734;47.028;28.820;2023-05-31T03:47:36;100527.88;;;14.84;60.16
42067;BME280;27734;47.028;28.820;2023-05-31T03:50:08;100530.55;;;14.86;59.51
42067;BME280;27734;47.028;28.820;2023-05-31T03:52:40;100532.41;;;14.90;59.56
42067;BME280;27734;47.028;28.820;2023-05-31T03:55:11;100525.41;;;14.94;59.62
42067;BME280;27734;47.028;28.820;2023-05-31T03:57:43;100531.66;;;14.99;60.39
42067;BME280;27734;47.028;28.820;2023-05-31T04:00:16;100531.74;;;15.03;59.52
42067;BME280;27734;47.028;28.820;2023-05-31T04:02:52;100528.28;;;15.06;60.06
42067;BME280;27734;47.028;28.820;2023-05-31T04:05:23;100532.80;;;15.12;60.26
42067;BME280;27734;47.028;28.820;2023-05-31T04:07:54;100537.30;;;15.19;59.78
42067;BME280;27734;47.028;28.820;2023-05-31T04:10:26;100534.77;;;15.25;60.07
42067;BME280;27734;47.028;28.820;2023-05-31T04:12:57;100540.16;;;15.31;59.22
42067;BME280;27734;47.028;28.820;2023-05-31T04:15:29;100549.98;;;15.38;60.42
42067;BME280;27734;47.028;28.820;2023-05-31T04:18:03;100541.25;;;15.44;59.38
42067;BME280;27734;47.028;28.820;2023-05-31T04:20:35;100541.33;;;15.49;60.10
42067;BME280;27734;47.028;28.820;2023-05-31T04:23:07;100539.64;;;15.52;59.99
42067;BME280;27734;47.028;28.820;2023-05-31T04:25:38;100541.45;;;15.56;60.14
42067;BME280;27734;47.028;28.820;2023-05-31T04:28:10;100535.40;;;15.63;59.96
42067;BME280;27734;47.028;28.820;2023-05-31T04:30:42;100538.19;;;15.73;59.85
42067;BME280;27734;47.028;28.820;2023-05-31T04:33:14;100536.47;;;15.76;60.12
42067;BME280;27734;47.028;28.820;2023-05-31T04:35:47;100539.24;;;15.83;59.75
42067;BME280;27734;47.028;28.820;2023-05-31T04:38:20;100543.77;;;15.90;59.62
42067;BME280;27734;47.028;28.820;2023-05-31T04:40:57;100547.41;;;15.98;59.70
42067;BME280;27734;47.028;28.820;2023-05-31T04:43:30;100541.41;;;16.10;59.17
42067;BME280;27734;47.028;28.820;2023-05-31T04:46:02;100538.89;;;16.19;59.71
42067;BME280;27734;47.028;28.820;2023-05-31T04:48:40;100531.11;;;16.31;59.42
42067;BME280;27734;47.028;28.820;2023-05-31T04:51:11;100544.47;;;16.44;59.24
42067;BME280;27734;47.028;28.820;2023-05-31T04:53:45;100549.03;;;16.54;59.53
42067;BME280;27734;47.028;28.820;2023-05-31T04:56:21;100542.10;;;16.67;59.64
42067;BME280;27734;47.028;28.820;2023-05-31T04:58:53;100541.38;;;16.80;59.45
42067;BME280;27734;47.028;28.820;2023-05-31T05:01:26;100543.30;;;16.94;59.17
42067;BME280;27734;47.028;28.820;2023-05-31T05:04:08;100545.22;;;17.07;58.67
42067;BME280;27734;47.028;28.820;2023-05-31T05:06:41;100541.77;;;17.14;59.15
42067;BME280;27734;47.028;28.820;2023-05-31T05:09:13;100540.94;;;17.23;58.75
42067;BME280;27734;47.028;28.820;2023-05-31T05:11:49;100541.94;;;17.33;58.65
42067;BME280;27734;47.028;28.820;2023-05-31T05:14:21;100542.91;;;17.44;58.10
42067;BME280;27734;47.028;28.820;2023-05-31T05:16:53;100543.88;;;17.55;58.22
42067;BME280;27734;47.028;28.820;2023-05-31T05:19:30;100541.31;;;17.68;58.03
42067;BME280;27734;47.028;28.820;2023-05-31T05:22:02;100549.34;;;17.77;57.66
42067;BME280;27734;47.028;28.820;2023-05-31T05:24:34;100554.70;;;17.85;57.37
42067;BME280;27734;47.028;28.820;2023-05-31T05:27:05;100550.37;;;17.94;57.14
42067;BME280;27734;47.028;28.820;2023-05-31T05:29:38;100557.53;;;18.06;56.99
42067;BME280;27734;47.028;28.820;2023-05-31T05:32:11;100558.47;;;18.18;56.95
42067;BME280;27734;47.028;28.820;2023-05-31T05:34:42;100555.87;;;18.28;56.77
42067;BME280;27734;47.028;28.820;2023-05-31T05:37:14;100562.13;;;18.41;56.17
42067;BME280;27734;47.028;28.820;2023-05-31T05:39:46;100559.52;;;18.52;56.44
42067;BME280;27734;47.028;28.820;2023-05-31T05:42:17;100564.88;;;18.64;56.00
42067;BME280;27734;47.028;28.820;2023-05-31T05:44:49;100569.36;;;18.75;54.89
42067;BME280;27734;47.028;28.820;2023-05-31T05:47:21;100566.73;;;18.84;55.09
42067;BME280;27734;47.028;28.820;2023-05-31T05:49:53;100565.01;;;18.95;54.69
42067;BME280;27734;47.028;28.820;2023-05-31T05:52:26;100556.15;;;19.06;54.70
42067;BME280;27734;47.028;28.820;2023-05-31T05:55:00;100564.14;;;19.18;54.36
42067;BME280;27734;47.028;28.820;2023-05-31T05:57:34;100558.84;;;19.27;53.54
42067;BME280;27734;47.028;28.820;2023-05-31T06:00:32;100565.08;;;19.40;53.55
42067;BME280;27734;47.028;28.820;2023-05-31T06:03:06;100561.52;;;19.50;53.76
42067;BME280;27734;47.028;28.820;2023-05-31T06:05:41;100564.17;;;19.61;53.64
42067;BME280;27734;47.028;28.820;2023-05-31T06:08:16;100556.19;;;19.73;53.42
42067;BME280;27734;47.028;28.820;2023-05-31T06:10:48;100555.33;;;19.84;52.85
42067;BME280;27734;47.028;28.820;2023-05-31T06:13:20;100556.19;;;19.95;52.62
42067;BME280;27734;47.028;28.820;2023-05-31T06:15:58;100559.71;;;20.05;51.69
42067;BME280;27734;47.028;28.820;2023-05-31T06:18:30;100563.23;;;20.15;51.99
42067;BME280;27734;47.028;28.820;2023-05-31T06:21:05;100551.67;;;20.22;51.86
42067;BME280;27734;47.028;28.820;2023-05-31T06:23:37;100557.84;;;20.33;51.75
42067;BME280;27734;47.028;28.820;2023-05-31T06:26:12;100559.59;;;20.43;51.43
42067;BME280;27734;47.028;28.820;2023-05-31T06:28:46;100557.77;;;20.55;51.43
42067;BME280;27734;47.028;28.820;2023-05-31T06:31:48;100563.95;;;20.68;51.13
42067;BME280;27734;47.028;28.820;2023-05-31T06:34:28;100561.23;;;20.80;50.85
42067;BME280;27734;47.028;28.820;2023-05-31T06:37:07;100555.83;;;20.91;50.96
42067;BME280;27734;47.028;28.820;2023-05-31T06:39:39;100562.00;;;21.04;50.81
42067;BME280;27734;47.028;28.820;2023-05-31T06:42:11;100563.69;;;21.15;49.71
42067;BME280;27734;47.028;28.820;2023-05-31T06:44:52;100568.92;;;21.29;50.71
42067;BME280;27734;47.028;28.820;2023-05-31T06:47:31;100567.95;;;21.43;49.70
42067;BME280;27734;47.028;28.820;2023-05-31T06:50:24;100573.16;;;21.60;49.70
42067;BME280;27734;47.028;28.820;2023-05-31T06:53:14;100568.60;;;21.74;49.38
42067;BME280;27734;47.028;28.820;2023-05-31T06:55:51;100572.86;;;21.92;49.60
42067;BME280;27734;47.028;28.820;2023-05-31T06:58:25;100567.34;;;22.09;49.26
42067;BME280;27734;47.028;28.820;2023-05-31T07:01:04;100560.91;;;22.29;48.57
42067;BME280;27734;47.028;28.820;2023-05-31T07:03:35;100565.14;;;22.48;48.24
42067;BME280;27734;47.028;28.820;2023-05-31T07:06:07;100571.14;;;22.67;47.83
42067;BME280;27734;47.028;28.820;2023-05-31T07:08:41;100561.09;;;22.86;47.99
42067;BME280;27734;47.028;28.820;2023-05-31T07:11:42;100568.83;;;23.09;47.57
42067;BME280;27734;47.028;28.820;2023-05-31T07:14:14;100572.08;;;23.30;46.76
42067;BME280;27734;47.028;28.820;2023-05-31T07:16:52;100566.41;;;23.50;46.80
42067;BME280;27734;47.028;28.820;2023-05-31T07:19:25;100562.44;;;23.73;46.56
42067;BME280;27734;47.028;28.820;2023-05-31T07:21:57;100563.01;;;23.92;46.20
42067;BME280;27734;47.028;28.820;2023-05-31T07:24:29;100559.89;;;24.15;45.13
42067;BME280;27734;47.028;28.820;2023-05-31T07:27:05;100553.23;;;24.36;45.30
42067;BME280;27734;47.028;28.820;2023-05-31T07:29:46;100552.80;;;24.59;44.95
42067;BME280;27734;47.028;28.820;2023-05-31T07:32:22;100549.41;;;24.90;44.37
42067;BME280;27734;47.028;28.820;2023-05-31T07:35:02;100547.93;;;25.16;44.26
42067;BME280;27734;47.028;28.820;2023-05-31T07:37:36;100557.20;;;25.40;43.57
42067;BME280;27734;47.028;28.820;2023-05-31T07:40:12;100552.08;;;25.67;42.51
42067;BME280;27734;47.028;28.820;2023-05-31T07:45:34;100550.97;;;26.08;41.29
42067;BME280;27734;47.028;28.820;2023-05-31T07:48:08;100547.81;;;26.25;40.10
42067;BME280;27734;47.028;28.820;2023-05-31T07:50:51;100552.89;;;26.36;41.03
42067;BME280;27734;47.028;28.820;2023-05-31T07:53:23;100546.97;;;26.54;40.59
42067;BME280;27734;47.028;28.820;2023-05-31T07:56:28;100549.28;;;26.68;39.76
42067;BME280;27734;47.028;28.820;2023-05-31T07:59:06;100546.17;;;26.82;39.07
42067;BME280;27734;47.028;28.820;2023-05-31T08:01:44;100544.78;;;26.97;38.66
42067;BME280;27734;47.028;28.820;2023-05-31T08:04:20;100546.94;;;27.14;38.44
42067;BME280;27734;47.028;28.820;2023-05-31T08:06:51;100551.94;;;27.26;38.16
42067;BME280;27734;47.028;28.820;2023-05-31T08:09:25;100548.20;;;27.32;37.70
42067;BME280;27734;47.028;28.820;2023-05-31T08:12:16;100543.48;;;27.39;37.04
42067;BME280;27734;47.028;28.820;2023-05-31T08:14:50;100550.33;;;27.49;35.95
42067;BME280;27734;47.028;28.820;2023-05-31T08:17:25;100545.30;;;27.65;35.82
42067;BME280;27734;47.028;28.820;2023-05-31T08:20:04;100544.11;;;27.74;35.40
42067;BME280;27734;47.028;28.820;2023-05-31T08:22:46;100549.28;;;27.80;34.67
42067;BME280;27734;47.028;28.820;2023-05-31T08:25:24;100555.09;;;27.68;33.45
42067;BME280;27734;47.028;28.820;2023-05-31T08:28:12;100554.66;;;27.53;33.50
42067;BME280;27734;47.028;28.820;2023-05-31T08:30:58;100553.11;;;27.73;32.53
42067;BME280;27734;47.028;28.820;2023-05-31T08:34:02;100554.14;;;27.95;32.40
42067;BME280;27734;47.028;28.820;2023-05-31T08:36:40;100549.96;;;28.12;31.95
42067;BME280;27734;47.028;28.820;2023-05-31T08:39:15;100551.95;;;28.07;32.05
42067;BME280;27734;47.028;28.820;2023-05-31T08:41:50;100560.56;;;27.91;31.39
42067;BME280;27734;47.028;28.820;2023-05-31T08:44:31;100544.70;;;27.82;30.70
42067;BME280;27734;47.028;28.820;2023-05-31T08:47:12;100543.09;;;27.76;31.20
42067;BME280;27734;47.028;28.820;2023-05-31T08:49:47;100540.56;;;27.72;30.90
42067;BME280;27734;47.028;28.820;2023-05-31T08:52:23;100544.53;;;27.61;30.01
42067;BME280;27734;47.028;28.820;2023-05-31T08:54:56;100534.62;;;27.62;30.34
42067;BME280;27734;47.028;28.820;2023-05-31T08:57:31;100534.62;;;27.62;29.48
42067;BME280;27734;47.028;28.820;2023-05-31T09:00:14;100528.25;;;27.65;29.55
42067;BME280;27734;47.028;28.820;2023-05-31T09:02:56;100529.98;;;27.66;30.49
42067;BME280;27734;47.028;28.820;2023-05-31T09:08:24;100526.54;;;27.87;28.87
42067;BME280;27734;47.028;28.820;2023-05-31T09:11:06;100523.55;;;27.96;28.05
42067;BME280;27734;47.028;28.820;2023-05-31T09:13:46;100513.52;;;28.00;28.36
42067;BME280;27734;47.028;28.820;2023-05-31T09:16:21;100518.58;;;28.09;28.14
42067;BME280;27734;47.028;28.820;2023-05-31T09:19:01;100523.69;;;28.17;28.30
42067;BME280;27734;47.028;28.820;2023-05-31T09:21:46;100518.18;;;28.20;27.86
42067;BME280;27734;47.028;28.820;2023-05-31T09:24:28;100523.58;;;28.20;28.00
42067;BME280;27734;47.028;28.820;2023-05-31T09:27:05;100507.39;;;28.20;27.55
42067;BME280;27734;47.028;28.820;2023-05-31T09:30:08;100513.34;;;28.30;27.40
42067;BME280;27734;47.028;28.820;2023-05-31T09:32:51;100507.95;;;28.30;27.39
42067;BME280;27734;47.028;28.820;2023-05-31T09:35:36;100509.97;;;28.47;27.16
42067;BME280;27734;47.028;28.820;2023-05-31T09:38:17;100504.00;;;28.39;27.23
42067;BME280;27734;47.028;28.820;2023-05-31T09:40:57;100508.92;;;28.51;25.98
42067;BME280;27734;47.028;28.820;2023-05-31T09:43:59;100501.43;;;28.59;26.63
42067;BME280;27734;47.028;28.820;2023-05-31T09:46:35;100503.89;;;28.65;26.10
42067;BME280;27734;47.028;28.820;2023-05-31T09:49:07;100494.69;;;28.71;25.85
42067;BME280;27734;47.028;28.820;2023-05-31T09:51:55;100506.11;;;28.78;26.02
42067;BME280;27734;47.028;28.820;2023-05-31T09:54:36;100507.63;;;28.85;25.73
42067;BME280;27734;47.028;28.820;2023-05-31T09:57:30;100504.13;;;28.83;25.69
42067;BME280;27734;47.028;28.820;2023-05-31T10:00:26;100505.60;;;28.68;26.07
42067;BME280;27734;47.028;28.820;2023-05-31T10:03:04;100497.20;;;28.52;26.12
42067;BME280;27734;47.028;28.820;2023-05-31T10:05:37;100498.14;;;28.27;26.72
42067;BME280;27734;47.028;28.820;2023-05-31T10:08:13;100500.48;;;28.13;27.17
42067;BME280;27734;47.028;28.820;2023-05-31T10:10:47;100507.95;;;28.05;27.09
42067;BME280;27734;47.028;28.820;2023-05-31T10:13:22;100503.36;;;28.08;27.21
42067;BME280;27734;47.028;28.820;2023-05-31T10:16:03;100511.63;;;28.27;26.71
42067;BME280;27734;47.028;28.820;2023-05-31T10:18:38;100503.66;;;28.24;27.02
42067;BME280;27734;47.028;28.820;2023-05-31T10:21:15;100507.56;;;28.15;26.72
42067;BME280;27734;47.028;28.820;2023-05-31T10:24:02;100499.53;;;28.14;27.14
42067;BME280;27734;47.028;28.820;2023-05-31T10:26:38;100495.09;;;28.13;27.33
42067;BME280;27734;47.028;28.820;2023-05-31T10:29:23;100503.52;;;28.04;27.35
42067;BME280;27734;47.028;28.820;2023-05-31T10:32:05;100503.80;;;27.96;27.75
42067;BME280;27734;47.028;28.820;2023-05-31T10:34:41;100494.83;;;27.94;27.79
42067;BME280;27734;47.028;28.820;2023-05-31T10:37:21;100491.48;;;27.87;27.73
42067;BME280;27734;47.028;28.820;2023-05-31T10:40:12;100493.70;;;27.76;28.15
42067;BME280;27734;47.028;28.820;2023-05-31T10:43:07;100497.59;;;27.67;28.41
42067;BME280;27734;47.028;28.820;2023-05-31T10:45:48;100494.35;;;27.57;28.33
42067;BME280;27734;47.028;28.820;2023-05-31T10:48:34;100492.23;;;27.40;28.07
42067;BME280;27734;47.028;28.820;2023-05-31T10:51:13;100494.91;;;27.14;28.35
42067;BME280;27734;47.028;28.820;2023-05-31T10:53:48;100494.23;;;27.07;28.49
42067;BME280;27734;47.028;28.820;2023-05-31T10:56:30;100498.05;;;27.00;28.50
42067;BME280;27734;47.028;28.820;2023-05-31T10:59:02;100497.38;;;26.93;28.81
42067;BME280;27734;47.028;28.820;2023-05-31T11:01:36;100496.47;;;26.93;28.22
42067;BME280;27734;47.028;28.820;2023-05-31T11:04:23;100499.27;;;26.89;28.79
42067;BME280;27734;47.028;28.820;2023-05-31T11:07:12;100488.77;;;26.82;28.14
42067;BME280;27734;47.028;28.820;2023-05-31T11:10:00;100492.38;;;26.81;28.13
42067;BME280;27734;47.028;28.820;2023-05-31T11:12:40;100494.83;;;26.88;28.16
42067;BME280;27734;47.028;28.820;2023-05-31T11:15:15;100498.97;;;26.99;28.34
42067;BME280;27734;47.028;28.820;2023-05-31T11:17:54;100491.44;;;27.10;28.66
42067;BME280;27734;47.028;28.820;2023-05-31T11:20:35;100483.44;;;27.35;28.56
42067;BME280;27734;47.028;28.820;2023-05-31T11:23:28;100479.20;;;27.53;27.75
42067;BME280;27734;47.028;28.820;2023-05-31T11:26:31;100475.00;;;27.71;27.04
42067;BME280;27734;47.028;28.820;2023-05-31T11:29:05;100474.89;;;27.74;27.03
42067;BME280;27734;47.028;28.820;2023-05-31T11:35:22;100468.41;;;27.80;26.45
42067;BME280;27734;47.028;28.820;2023-05-31T11:38:08;100462.05;;;27.81;26.31
42067;BME280;27734;47.028;28.820;2023-05-31T11:40:50;100451.22;;;27.83;25.63
42067;BME280;27734;47.028;28.820;2023-05-31T11:43:30;100461.66;;;27.92;25.86
42067;BME280;27734;47.028;28.820;2023-05-31T11:46:05;100453.44;;;27.96;25.47
42067;BME280;27734;47.028;28.820;2023-05-31T11:48:44;100457.08;;;27.94;25.75
42067;BME280;27734;47.028;28.820;2023-05-31T11:51:17;100452.23;;;28.05;25.90
42067;BME280;27734;47.028;28.820;2023-05-31T11:53:49;100459.06;;;28.14;26.21
42067;BME280;27734;47.028;28.820;2023-05-31T11:56:31;100440.24;;;28.12;26.08
42067;BME280;27734;47.028;28.820;2023-05-31T11:59:07;100458.26;;;28.12;25.53
42067;BME280;27734;47.028;28.820;2023-05-31T12:01:43;100450.05;;;28.15;25.16
42067;BME280;27734;47.028;28.820;2023-05-31T12:04:15;100448.34;;;28.12;24.85
42067;BME280;27734;47.028;28.820;2023-05-31T12:06:48;100438.33;;;28.16;25.03
42067;BME280;27734;47.028;28.820;2023-05-31T12:09:25;100450.45;;;28.28;24.51
42067;BME280;27734;47.028;28.820;2023-05-31T12:11:59;100437.32;;;28.42;24.39
42067;BME280;27734;47.028;28.820;2023-05-31T12:14:33;100431.28;;;28.58;24.90
42067;BME280;27734;47.028;28.820;2023-05-31T12:17:08;100431.66;;;28.72;24.62
42067;BME280;27734;47.028;28.820;2023-05-31T12:19:44;100429.33;;;28.85;24.62
42067;BME280;27734;47.028;28.820;2023-05-31T12:22:22;100424.73;;;28.87;24.50
42067;BME280;27734;47.028;28.820;2023-05-31T12:24:58;100426.63;;;28.85;24.53
42067;BME280;27734;47.028;28.820;2023-05-31T12:27:35;100434.17;;;28.77;24.37
42067;BME280;27734;47.028;28.820;2023-05-31T12:30:07;100433.77;;;28.64;24.37
42067;BME280;27734;47.028;28.820;2023-05-31T12:32:46;100438.75;;;28.51;24.31
42067;BME280;27734;47.028;28.820;2023-05-31T12:35:20;100437.74;;;28.31;24.29
42067;BME280;27734;47.028;28.820;2023-05-31T12:37:53;100447.70;;;28.06;24.54
42067;BME280;27734;47.028;28.820;2023-05-31T12:40:25;100438.47;;;27.88;24.86
42067;BME280;27734;47.028;28.820;2023-05-31T12:43:02;100439.79;;;27.76;25.01
42067;BME280;27734;47.028;28.820;2023-05-31T12:45:39;100433.47;;;27.77;25.51
42067;BME280;27734;47.028;28.820;2023-05-31T12:48:12;100432.17;;;27.87;25.55
42067;BME280;27734;47.028;28.820;2023-05-31T12:50:48;100425.48;;;27.99;25.55
42067;BME280;27734;47.028;28.820;2023-05-31T12:53:24;100426.36;;;28.00;25.81
42067;BME280;27734;47.028;28.820;2023-05-31T12:55:56;100419.70;;;27.85;25.80
42067;BME280;27734;47.028;28.820;2023-05-31T12:58:28;100413.41;;;27.84;25.72
42067;BME280;27734;47.028;28.820;2023-05-31T13:00:59;100414.59;;;27.77;25.94
42067;BME280;27734;47.028;28.820;2023-05-31T13:03:33;100409.97;;;27.80;26.50
42067;BME280;27734;47.028;28.820;2023-05-31T13:06:05;100405.38;;;27.83;25.72
42067;BME280;27734;47.028;28.820;2023-05-31T13:08:36;100405.33;;;27.84;25.75
42067;BME280;27734;47.028;28.820;2023-05-31T13:11:08;100405.33;;;27.84;25.78
42067;BME280;27734;47.028;28.820;2023-05-31T13:13:45;100406.17;;;27.86;26.17
42067;BME280;27734;47.028;28.820;2023-05-31T13:16:20;100414.20;;;27.88;25.65
42067;BME280;27734;47.028;28.820;2023-05-31T13:18:57;100404.23;;;27.90;26.18
42067;BME280;27734;47.028;28.820;2023-05-31T13:21:31;100403.13;;;27.95;25.99
42067;BME280;27734;47.028;28.820;2023-05-31T13:24:05;100403.07;;;27.97;26.02
42067;BME280;27734;47.028;28.820;2023-05-31T13:26:40;100407.91;;;27.87;25.94
42067;BME280;27734;47.028;28.820;2023-05-31T13:29:12;100410.89;;;27.79;25.86
42067;BME280;27734;47.028;28.820;2023-05-31T13:31:51;100407.44;;;27.76;25.60
42067;BME280;27734;47.028;28.820;2023-05-31T13:34:27;100396.07;;;27.68;26.02
42067;BME280;27734;47.028;28.820;2023-05-31T13:37:04;100397.86;;;27.67;25.99